A. Olaes, Philippines

6:58 PM PHT on January 21, 2017 (GMT +0800)
Alabang | | Change Station

Elev 66 ft 14.44 °N, 121.04 °E | Updated 4 seconds ago

Partly Cloudy
Partly Cloudy
80.6 °F
Feels Like 85 °F
N
6.7
Wind Variable Wind from ESE
Gusts 7.4 mph

Today
High -- | Low -- °F
--% Chance of Precip.
Yesterday
High -- | Low -- °F
Precip. -- in
Pressure 29.98 in
Visibility 6.2 miles
Clouds Few 2500 ft
Scattered Clouds 30000 ft
Heat Index 85 °F
Dew Point 72 °F
Humidity 76%
Rainfall 0.00 in
Snow Depth Not available.
6:24 AM 5:49 PM
Waning Crescent, 36% visible
METAR RPLL 211000Z 10008KT 9999 FEW025 SCT300 28/18 Q1015 NOSIG RMK A2997
Pressure 29.98 in
Visibility 6.2 miles
Clouds Few 2500 ft
Scattered Clouds 30000 ft
Heat Index 85 °F
Dew Point 72 °F
Humidity 76%
Rainfall 0.00 in
Snow Depth Not available.
6:24 AM 5:49 PM
Waning Crescent, 36% visible
METAR RPLL 211000Z 10008KT 9999 FEW025 SCT300 28/18 Q1015 NOSIG RMK A2997

Get Your Daily Forecast Email!

Thanks for signing up!

Be on the lookout for a verification email in your inbox.

You'll start receiving the daily forecast at 8 AM.

×

10-Day Weather Forecast

No radar image for this location.
×

Almanac

Astronomy

Jan. 21, 2017 Rise Set
Actual Time
Civil Twilight
Nautical Twilight
Astronomical Twilight
Moon
Length of Visible Light
Length of Day
Tomorrow will be .
, % of the Moon is Illuminated

Today's Extremes

Country Highs Country Lows

Community

WunderPhotos

Upload Photos

1,962,540 photos uploaded!

WunderBlog® & News

Nearby

Air Quality

  Air Quality AQ Index Pollutant
Not available.

Snow Depth

Station Depth Elevation

Earthquake Activity

City Distance Mag. Time & Date
Minimum magnitude displayed is 2.5.

Coastal Water Temperatures

Place Temperature

Stations

Nearby Weather Stations

Station Location Temp. Windchill Dew Point Humidity Wind Precip. Elev Updated Type